Time;durP1;ratioP1;P1;durP2;ratioP2;P2;SDS_P1;SDS_P2;PMS_P1;PMS_P2;Temp;Humidity;BMP_temperature;BMP_pressure;BME280_temperature;BME280_humidity;BME280_pressure;Samples;Min_cycle;Max_cycle;Signal;HPM_P1;HPM_P2
2021/03/31 00:00:19;;;;;;;16.45;8.55;;;;;;;6.80;47.10;100696.78;117124;1209;22813;-64
2021/03/31 00:02:49;;;;;;;13.18;8.58;;;;;;;6.79;46.94;100695.95;117232;1212;23688;-64
2021/03/31 00:05:17;;;;;;;16.00;8.55;;;;;;;6.80;47.49;100696.78;117117;1209;22847;-64
2021/03/31 00:07:44;;;;;;;17.20;9.30;;;;;;;6.81;47.35;100701.16;117217;1214;22824;-64
2021/03/31 00:10:18;;;;;;;19.90;8.75;;;;;;;6.81;47.21;100693.88;117136;1209;22926;-64
2021/03/31 00:12:45;;;;;;;16.15;9.20;;;;;;;6.80;47.86;100692.20;117210;1212;23919;-64
2021/03/31 00:15:15;;;;;;;17.95;8.65;;;;;;;6.80;47.86;100691.37;117152;1209;22908;-61
2021/03/31 00:17:42;;;;;;;21.20;8.60;;;;;;;6.78;47.61;100686.16;117245;1209;23021;-62
2021/03/31 00:20:16;;;;;;;13.65;8.40;;;;;;;6.79;48.01;100684.28;117133;1209;23704;-62
2021/03/31 00:22:43;;;;;;;16.70;9.15;;;;;;;6.79;47.60;100687.83;117261;1209;24038;-61
2021/03/31 00:25:13;;;;;;;16.50;8.45;;;;;;;6.79;47.47;100685.12;117165;1209;22880;-62
2021/03/31 00:27:41;;;;;;;16.30;9.35;;;;;;;6.80;47.54;100677.83;117241;1209;22897;-62
2021/03/31 00:30:12;;;;;;;18.05;9.25;;;;;;;6.80;47.20;100683.24;117165;1209;22932;-62
2021/03/31 00:32:39;;;;;;;17.70;8.90;;;;;;;6.80;47.76;100681.38;117162;1212;23053;-62
2021/03/31 00:35:08;;;;;;;14.55;8.40;;;;;;;6.77;47.75;100673.68;117112;1210;23146;-62
2021/03/31 00:37:37;;;;;;;14.55;8.25;;;;;;;6.74;47.29;100674.08;117215;1209;22806;-61
2021/03/31 00:40:09;;;;;;;23.60;10.60;;;;;;;6.73;47.23;100678.66;117122;1209;22970;-62
2021/03/31 00:42:37;;;;;;;18.05;8.85;;;;;;;6.72;47.58;100668.86;117212;1209;22946;-62
2021/03/31 00:45:07;;;;;;;18.30;9.45;;;;;;;6.72;48.23;100676.99;117135;1213;22910;-62
2021/03/31 00:47:38;;;;;;;17.30;9.40;;;;;;;6.72;48.38;100671.58;117224;1208;22821;-62
2021/03/31 00:50:08;;;;;;;14.45;8.75;;;;;;;6.72;48.62;100671.58;117058;1209;22887;-62
2021/03/31 00:52:36;;;;;;;15.70;8.70;;;;;;;6.72;48.84;100670.73;117181;1210;22945;-62
2021/03/31 00:55:06;;;;;;;20.45;10.05;;;;;;;6.73;49.63;100673.25;117119;1209;22881;-62
2021/03/31 00:57:35;;;;;;;22.40;9.20;;;;;;;6.71;50.21;100667.20;117232;1209;22965;-62
2021/03/31 01:00:07;;;;;;;15.60;9.25;;;;;;;6.69;49.77;100658.44;117187;1209;22979;-62
2021/03/31 01:02:36;;;;;;;22.93;10.37;;;;;;;6.66;50.54;100658.84;117141;1209;23540;-62
2021/03/31 01:05:16;;;;;;;18.30;10.10;;;;;;;6.64;51.33;100660.08;117217;1209;22933;-62
2021/03/31 01:07:49;;;;;;;16.50;9.75;;;;;;;6.59;50.92;100657.17;117121;1209;22942;-62
2021/03/31 01:10:19;;;;;;;17.85;9.45;;;;;;;6.57;51.66;100651.12;117205;1209;22880;-62
2021/03/31 01:13:08;;;;;;;22.65;9.95;;;;;;;6.55;52.28;100647.77;117138;1209;22864;-61
2021/03/31 01:15:37;;;;;;;23.90;10.10;;;;;;;6.52;52.29;100638.19;116564;1212;23137;-62
2021/03/31 01:18:26;;;;;;;17.40;10.15;;;;;;;6.48;52.93;100636.95;116999;1212;23094;-62
2021/03/31 01:21:19;;;;;;;14.75;9.25;;;;;;;6.44;53.38;100645.67;117132;1215;22865;-62
2021/03/31 01:24:22;;;;;;;17.37;9.67;;;;;;;6.39;53.88;100640.85;117020;1211;23810;-62
2021/03/31 01:27:04;;;;;;;20.65;10.80;;;;;;;6.40;53.97;100634.41;117096;1212;22879;-62
2021/03/31 01:29:51;;;;;;;16.80;9.80;;;;;;;6.37;54.40;100627.52;117011;1212;22955;-60
2021/03/31 01:32:45;;;;;;;15.55;8.80;;;;;;;6.36;53.92;100623.14;117075;1212;23214;-60
2021/03/31 01:35:15;;;;;;;21.80;9.33;;;;;;;6.32;54.58;100621.06;117056;1211;22893;-61
2021/03/31 01:38:08;;;;;;;16.20;10.10;;;;;;;6.30;54.89;100620.44;116984;1212;23064;-60
2021/03/31 01:40:36;;;;;;;16.90;9.85;;;;;;;6.28;54.48;100619.80;117154;1212;23030;-61
2021/03/31 01:43:12;;;;;;;18.20;10.10;;;;;;;6.27;54.75;100612.72;116996;1212;22900;-60
2021/03/31 01:45:40;;;;;;;20.43;11.05;;;;;;;6.23;54.96;100608.73;116926;1212;22842;-61
2021/03/31 01:48:11;;;;;;;16.27;9.33;;;;;;;6.21;55.21;100610.80;116905;1212;22936;-60
2021/03/31 01:50:39;;;;;;;18.10;10.60;;;;;;;6.18;54.85;100605.83;117233;1209;22899;-61
2021/03/31 01:53:06;;;;;;;21.35;10.15;;;;;;;6.16;55.75;100608.73;117150;1209;22904;-61
2021/03/31 01:55:34;;;;;;;18.77;10.40;;;;;;;6.16;55.31;100608.73;117236;1212;22878;-61
2021/03/31 01:58:03;;;;;;;16.30;10.20;;;;;;;6.15;56.01;100607.06;117159;1209;22962;-61
2021/03/31 02:00:32;;;;;;;19.80;11.25;;;;;;;6.14;55.88;100610.80;117219;1209;22874;-60
2021/03/31 02:03:00;;;;;;;18.47;10.77;;;;;;;6.14;55.94;100608.09;117137;1209;22944;-61
2021/03/31 02:07:22;;;;;;;16.83;9.63;;;;;;;6.11;56.21;100604.95;113204;1205;23122;-61
2021/03/31 02:09:50;;;;;;;17.25;10.60;;;;;;;6.08;56.18;100598.06;117147;1209;22881;-62
2021/03/31 02:12:21;;;;;;;15.80;9.20;;;;;;;6.08;55.68;100605.34;117231;1209;23340;-62
2021/03/31 02:14:49;;;;;;;19.05;10.05;;;;;;;6.05;56.55;100603.07;117122;1209;23974;-62
2021/03/31 02:17:19;;;;;;;16.20;10.80;;;;;;;6.06;56.29;100594.72;117095;1214;23645;-62
2021/03/31 02:19:47;;;;;;;21.00;11.40;;;;;;;6.05;56.21;100603.91;117088;1211;22895;-62
2021/03/31 02:22:16;;;;;;;16.80;11.50;;;;;;;6.04;55.68;100604.94;117210;1211;24294;-63
2021/03/31 02:24:47;;;;;;;17.50;10.65;;;;;;;6.02;55.91;100599.73;117134;1212;22852;-63
2021/03/31 02:27:14;;;;;;;19.65;10.90;;;;;;;6.01;55.82;100598.06;113687;1215;23467;-63
2021/03/31 02:29:47;;;;;;;20.70;10.87;;;;;;;6.03;56.64;100597.86;117153;1211;23821;-64
2021/03/31 02:32:16;;;;;;;23.60;11.60;;;;;;;6.02;56.32;100588.08;117207;1212;23070;-64
2021/03/31 02:34:44;;;;;;;21.60;11.60;;;;;;;6.00;56.20;100582.86;117078;1212;22952;-64
2021/03/31 02:37:13;;;;;;;20.43;10.90;;;;;;;5.98;56.09;100584.09;117138;1211;24005;-64
2021/03/31 02:39:41;;;;;;;16.90;10.75;;;;;;;5.97;56.41;100590.54;116993;1212;23416;-64
2021/03/31 02:42:11;;;;;;;23.20;11.05;;;;;;;5.96;56.75;100588.87;117171;1212;22948;-64
2021/03/31 02:44:42;;;;;;;21.85;11.20;;;;;;;5.95;55.96;100587.20;116939;1212;23638;-64
2021/03/31 02:47:14;;;;;;;16.30;10.70;;;;;;;5.95;56.16;100592.61;117213;1212;22878;-64
2021/03/31 02:50:01;;;;;;;20.33;11.70;;;;;;;5.96;56.35;100587.00;117134;1209;22852;-65
2021/03/31 02:52:29;;;;;;;20.53;12.03;;;;;;;5.97;56.39;100594.08;117173;1214;22897;-64
2021/03/31 02:54:57;;;;;;;22.10;12.20;;;;;;;5.98;56.61;100584.09;117084;1213;23089;-64
2021/03/31 02:57:24;;;;;;;19.83;11.97;;;;;;;5.99;56.47;100577.66;113622;1209;27204;-60
2021/03/31 02:59:52;;;;;;;21.50;12.40;;;;;;;5.99;56.88;100586.60;117097;1211;22837;-62
2021/03/31 03:02:20;;;;;;;20.15;12.10;;;;;;;6.01;56.73;100581.83;116932;1209;22808;-62
2021/03/31 03:04:48;;;;;;;22.07;11.60;;;;;;;6.02;56.77;100580.80;117203;1209;23886;-62
2021/03/31 03:07:17;;;;;;;21.30;11.70;;;;;;;6.03;56.77;100585.17;117130;1209;23523;-62
2021/03/31 03:09:46;;;;;;;19.90;11.43;;;;;;;6.03;56.72;100568.10;117224;1209;22894;-62
2021/03/31 03:12:16;;;;;;;20.47;12.37;;;;;;;6.03;57.08;100571.64;117142;1209;22970;-62
2021/03/31 03:14:46;;;;;;;18.45;11.20;;;;;;;6.03;57.20;100570.80;117219;1209;22903;-62
2021/03/31 03:17:15;;;;;;;19.05;12.50;;;;;;;6.06;57.15;100573.08;117113;1214;23593;-62
2021/03/31 03:19:43;;;;;;;18.97;11.10;;;;;;;6.04;57.10;100572.48;117205;1209;23000;-62
2021/03/31 03:22:11;;;;;;;17.40;11.50;;;;;;;6.02;57.23;100569.97;117120;1209;23013;-62
2021/03/31 03:24:43;;;;;;;21.65;11.60;;;;;;;6.02;57.74;100569.14;117219;1209;23018;-62
2021/03/31 03:27:17;;;;;;;23.75;11.50;;;;;;;6.00;58.21;100560.38;113812;1209;23337;-62
2021/03/31 03:29:49;;;;;;;23.10;12.40;;;;;;;5.98;57.72;100566.00;117243;1212;22998;-62
2021/03/31 03:32:17;;;;;;;22.95;13.05;;;;;;;5.98;58.54;100571.41;117031;1209;23838;-62
2021/03/31 03:34:50;;;;;;;19.97;12.70;;;;;;;5.95;58.59;100571.80;117234;1209;22873;-62
2021/03/31 03:37:18;;;;;;;19.67;11.90;;;;;;;5.92;58.80;100565.95;117162;1214;23652;-62
2021/03/31 03:39:46;;;;;;;20.60;13.00;;;;;;;5.89;59.21;100572.63;117223;1209;24933;-62
2021/03/31 03:42:13;;;;;;;21.40;12.50;;;;;;;5.89;59.31;100561.81;117185;1209;22909;-62
2021/03/31 03:44:41;;;;;;;17.30;12.13;;;;;;;5.89;59.10;100564.52;117216;1209;22973;-62
2021/03/31 03:47:08;;;;;;;24.25;12.90;;;;;;;5.84;59.33;100571.52;117111;1210;22918;-62
2021/03/31 03:49:39;;;;;;;21.90;12.65;;;;;;;5.82;59.51;100573.59;117197;1209;22873;-62
2021/03/31 03:52:08;;;;;;;23.80;13.70;;;;;;;5.81;60.18;100569.21;117130;1209;22971;-62
2021/03/31 03:54:35;;;;;;;21.00;12.50;;;;;;;5.80;60.11;100567.54;117189;1209;23026;-62
2021/03/31 03:57:05;;;;;;;23.17;12.70;;;;;;;5.78;60.51;100569.61;117097;1210;23032;-62
2021/03/31 03:59:34;;;;;;;20.90;12.35;;;;;;;5.76;60.74;100561.73;117205;1211;22871;-62
2021/03/31 04:02:03;;;;;;;23.70;13.35;;;;;;;5.74;61.46;100560.25;117237;1209;22888;-62
2021/03/31 04:04:31;;;;;;;23.33;14.03;;;;;;;5.72;61.51;100559.61;117131;1209;23356;-62
2021/03/31 04:06:59;;;;;;;23.10;13.10;;;;;;;5.71;61.41;100561.48;117256;1214;22985;-62
2021/03/31 04:09:27;;;;;;;22.75;13.30;;;;;;;5.69;61.89;100552.73;117157;1212;22934;-62
2021/03/31 04:11:54;;;;;;;25.80;15.20;;;;;;;5.68;62.42;100560.01;117209;1214;22870;-63
2021/03/31 04:14:23;;;;;;;21.90;14.35;;;;;;;5.69;62.11;100563.55;117125;1209;23659;-62
2021/03/31 04:16:52;;;;;;;24.27;13.50;;;;;;;5.68;62.35;100556.47;117006;1212;23069;-62
2021/03/31 04:19:19;;;;;;;23.30;14.65;;;;;;;5.64;63.23;100553.33;117101;1214;22878;-62
2021/03/31 04:21:47;;;;;;;25.20;14.45;;;;;;;5.62;63.68;100555.42;117172;1209;22905;-62
2021/03/31 04:24:14;;;;;;;24.30;13.70;;;;;;;5.62;63.22;100557.30;117114;1214;22942;-62
2021/03/31 04:26:43;;;;;;;21.90;13.85;;;;;;;5.59;63.91;100552.28;117207;1209;22869;-63
2021/03/31 04:29:12;;;;;;;23.60;12.90;;;;;;;5.58;63.77;100543.33;117140;1213;22872;-62
2021/03/31 04:31:40;;;;;;;23.63;14.17;;;;;;;5.57;63.86;100541.66;117188;1209;22913;-62
2021/03/31 04:34:08;;;;;;;23.50;14.50;;;;;;;5.55;64.02;100549.13;117099;1209;22967;-62
2021/03/31 04:36:37;;;;;;;21.00;13.55;;;;;;;5.54;63.98;100541.22;117240;1209;22987;-62
2021/03/31 04:39:05;;;;;;;25.20;13.03;;;;;;;5.53;63.87;100544.95;117170;1213;22912;-62
2021/03/31 04:41:36;;;;;;;19.90;12.85;;;;;;;5.51;64.31;100542.45;117212;1209;22859;-62
2021/03/31 04:44:04;;;;;;;22.35;14.55;;;;;;;5.51;64.04;100544.31;117135;1209;22942;-62
2021/03/31 04:46:31;;;;;;;21.65;14.35;;;;;;;5.53;64.77;100544.95;117201;1214;23024;-62
2021/03/31 04:48:59;;;;;;;20.05;12.80;;;;;;;5.55;64.69;100540.19;117171;1214;23871;-62
2021/03/31 04:51:26;;;;;;;20.70;12.60;;;;;;;5.57;64.50;100536.25;117081;1214;22971;-62
2021/03/31 04:53:55;;;;;;;20.25;13.55;;;;;;;5.60;64.61;100543.14;117183;1215;22842;-62
2021/03/31 04:56:23;;;;;;;26.90;14.27;;;;;;;5.63;64.74;100540.00;117144;1212;22861;-62
2021/03/31 04:58:51;;;;;;;23.30;14.53;;;;;;;5.65;65.08;100543.34;117233;1209;22829;-62
2021/03/31 05:01:18;;;;;;;22.67;13.90;;;;;;;5.67;64.93;100549.39;117104;1214;22892;-62
2021/03/31 05:03:46;;;;;;;23.15;14.55;;;;;;;5.72;64.86;100548.80;117203;1209;23525;-62
2021/03/31 05:06:13;;;;;;;26.03;15.60;;;;;;;5.77;64.80;100549.84;117112;1209;22853;-62
2021/03/31 05:08:40;;;;;;;29.10;16.00;;;;;;;5.79;65.24;100547.78;117216;1209;22934;-62
2021/03/31 05:11:08;;;;;;;20.95;14.45;;;;;;;5.80;65.13;100544.04;117146;1209;22977;-62
2021/03/31 05:13:36;;;;;;;24.30;14.40;;;;;;;5.83;64.89;100545.52;117277;1209;22879;-62
2021/03/31 05:16:05;;;;;;;23.83;14.87;;;;;;;5.85;65.33;100549.69;117122;1209;23597;-62
2021/03/31 05:18:32;;;;;;;23.40;14.05;;;;;;;5.87;65.05;100550.32;117220;1209;23015;-62
2021/03/31 05:21:00;;;;;;;23.17;14.93;;;;;;;5.88;65.31;100553.86;117100;1209;22946;-62
2021/03/31 05:23:28;;;;;;;27.53;15.17;;;;;;;5.86;65.21;100554.06;117237;1214;22936;-63
2021/03/31 05:25:56;;;;;;;24.75;14.50;;;;;;;5.85;65.42;100546.98;117103;1212;25016;-62
2021/03/31 05:28:23;;;;;;;23.77;14.23;;;;;;;5.88;65.37;100545.75;117196;1209;22877;-62
2021/03/31 05:30:51;;;;;;;24.50;14.50;;;;;;;5.89;65.50;100545.58;117142;1209;22856;-62
2021/03/31 05:33:19;;;;;;;28.90;15.90;;;;;;;5.89;65.33;100542.88;117254;1209;23011;-62
2021/03/31 05:35:46;;;;;;;29.50;16.57;;;;;;;5.90;65.34;100547.25;117225;1213;22903;-65
2021/03/31 05:38:15;;;;;;;29.00;16.55;;;;;;;5.92;65.84;100552.43;117177;1215;22846;-65
2021/03/31 05:40:43;;;;;;;33.50;17.80;;;;;;;5.93;65.65;100554.10;117210;1209;22981;-64
2021/03/31 05:43:11;;;;;;;35.20;18.50;;;;;;;5.94;66.06;100539.55;117122;1209;22848;-64
2021/03/31 05:45:40;;;;;;;27.83;16.03;;;;;;;5.97;65.83;100547.26;117261;1209;23928;-64
2021/03/31 05:48:09;;;;;;;25.50;16.15;;;;;;;5.99;66.22;100543.31;117128;1214;23002;-64
2021/03/31 05:50:36;;;;;;;25.30;15.95;;;;;;;6.03;65.94;100535.64;117220;1209;23703;-64
2021/03/31 05:53:04;;;;;;;25.15;15.10;;;;;;;6.07;65.99;100534.17;117067;1215;22950;-64
2021/03/31 05:55:31;;;;;;;27.50;16.10;;;;;;;6.12;66.39;100529.00;117240;1209;22893;-64
2021/03/31 05:57:59;;;;;;;23.70;15.70;;;;;;;6.16;66.16;100529.42;117203;1209;23252;-65
2021/03/31 06:00:27;;;;;;;31.40;19.20;;;;;;;6.21;66.34;100524.21;117206;1209;22926;-64
2021/03/31 06:02:55;;;;;;;25.65;16.15;;;;;;;6.26;66.49;100529.85;117107;1209;22863;-64
2021/03/31 06:05:23;;;;;;;28.75;16.10;;;;;;;6.31;66.49;100517.39;117233;1215;22813;-64
2021/03/31 06:07:50;;;;;;;29.55;17.75;;;;;;;6.37;66.49;100526.53;117105;1209;22941;-65
2021/03/31 06:10:24;;;;;;;25.90;16.15;;;;;;;6.39;66.04;100519.88;117232;1209;22922;-65
2021/03/31 06:12:54;;;;;;;23.60;16.05;;;;;;;6.42;66.20;100526.77;117103;1212;22842;-65
2021/03/31 06:15:37;;;;;;;24.25;16.10;;;;;;;6.43;66.26;100524.89;117230;1213;22906;-64
2021/03/31 06:18:08;;;;;;;26.80;16.40;;;;;;;6.45;66.24;100520.94;117131;1209;23008;-64
2021/03/31 06:21:02;;;;;;;29.10;17.15;;;;;;;6.47;66.02;100518.87;117187;1212;22881;-64
2021/03/31 06:26:27;;;;;;;23.10;16.70;;;;;;;6.45;66.49;100518.23;117170;1209;22920;-65
2021/03/31 06:29:00;;;;;;;30.60;16.75;;;;;;;6.44;66.33;100513.02;117116;1209;22848;-64
2021/03/31 06:31:47;;;;;;;26.15;17.80;;;;;;;6.45;66.90;100503.87;117185;1209;22848;-64
2021/03/31 06:34:15;;;;;;;31.15;17.35;;;;;;;6.44;66.86;100497.62;117106;1209;22983;-65
2021/03/31 06:37:09;;;;;;;30.00;17.23;;;;;;;6.46;67.24;100502.83;117174;1209;23020;-64
2021/03/31 06:39:37;;;;;;;25.13;16.33;;;;;;;6.50;67.41;100490.52;117127;1209;22906;-65
2021/03/31 06:42:16;;;;;;;31.57;16.63;;;;;;;6.55;67.62;100490.74;117156;1209;22822;-68
2021/03/31 06:49:57;;;;;;;29.70;17.67;;;;;;;6.77;67.88;100484.09;117135;1209;22881;-66
2021/03/31 06:52:25;;;;;;;32.60;20.25;;;;;;;6.84;67.74;100490.31;117210;1209;23675;-65
2021/03/31 06:54:57;;;;;;;35.00;19.30;;;;;;;6.92;68.56;100478.44;117129;1209;22980;-67
2021/03/31 06:57:25;;;;;;;33.35;19.10;;;;;;;7.02;68.32;100476.13;117216;1209;22960;-68
2021/03/31 07:00:10;;;;;;;30.60;18.30;;;;;;;7.10;68.72;100481.30;117133;1209;22900;-68
2021/03/31 07:02:39;;;;;;;31.45;20.65;;;;;;;7.19;68.77;100479.22;117180;1209;23072;-68
2021/03/31 07:05:08;;;;;;;29.35;18.10;;;;;;;7.26;68.82;100474.59;117060;1209;22918;-67
2021/03/31 07:07:43;;;;;;;30.15;20.55;;;;;;;7.32;68.94;100468.34;117215;1209;22889;-67
2021/03/31 07:10:15;;;;;;;36.50;19.80;;;;;;;7.39;68.68;100466.42;117139;1209;22887;-67
2021/03/31 07:12:50;;;;;;;29.30;18.60;;;;;;;7.47;68.32;100466.20;117185;1209;22923;-67
2021/03/31 07:15:20;;;;;;;28.40;17.20;;;;;;;7.54;68.11;100460.73;117123;1209;23828;-67
2021/03/31 07:17:55;;;;;;;30.25;17.80;;;;;;;7.62;67.93;100452.37;117240;1209;22844;-68
2021/03/31 07:20:24;;;;;;;24.30;16.20;;;;;;;7.69;68.51;100456.69;117165;1209;23003;-67
2021/03/31 07:22:53;;;;;;;26.60;17.20;;;;;;;7.79;68.05;100457.05;117193;1212;22905;-67
2021/03/31 07:25:22;;;;;;;44.47;20.13;;;;;;;7.89;68.77;100456.60;117139;1213;22867;-67
2021/03/31 07:27:51;;;;;;;32.90;19.80;;;;;;;7.98;68.45;100455.28;117154;1209;22876;-67
2021/03/31 07:30:22;;;;;;;33.40;19.45;;;;;;;8.07;67.45;100458.58;117123;1209;24096;-67
2021/03/31 07:33:12;;;;;;;29.73;19.05;;;;;;;8.14;67.08;100454.77;117212;1213;22893;-67
2021/03/31 07:35:40;;;;;;;30.33;18.97;;;;;;;8.21;67.46;100454.73;117074;1212;22938;-67
2021/03/31 07:38:08;;;;;;;30.50;17.50;;;;;;;8.27;66.88;100459.27;117199;1209;23821;-67
2021/03/31 07:40:37;;;;;;;28.80;19.60;;;;;;;8.32;66.40;100450.50;117082;1212;23669;-67
2021/03/31 07:43:30;;;;;;;29.10;18.80;;;;;;;8.38;66.44;100461.30;117097;1211;23865;-67
2021/03/31 07:46:08;;;;;;;31.90;18.60;;;;;;;8.43;66.51;100461.47;115766;1215;23146;-67
2021/03/31 07:48:37;;;;;;;26.40;18.50;;;;;;;8.47;66.46;100451.84;117238;1212;22949;-68
2021/03/31 07:51:16;;;;;;;28.55;18.50;;;;;;;8.50;65.69;100451.41;116881;1215;22855;-67
2021/03/31 07:53:45;;;;;;;30.70;19.40;;;;;;;8.55;65.73;100461.58;117163;1212;22989;-67
2021/03/31 07:56:14;;;;;;;31.55;20.70;;;;;;;8.59;65.71;100459.26;117219;1212;22843;-68
2021/03/31 07:58:42;;;;;;;29.93;20.70;;;;;;;8.61;65.96;100462.59;116912;1212;22908;-67
2021/03/31 08:01:11;;;;;;;28.80;20.35;;;;;;;8.64;65.89;100457.55;117147;1215;22917;-67
2021/03/31 08:03:41;;;;;;;28.35;19.55;;;;;;;8.69;65.93;100459.58;117072;1212;22938;-67
2021/03/31 08:06:11;;;;;;;30.95;19.75;;;;;;;8.75;66.06;100445.11;117137;1212;22855;-68
2021/03/31 08:08:45;;;;;;;28.85;18.85;;;;;;;8.79;65.46;100446.34;116984;1211;23064;-67
2021/03/31 08:11:34;;;;;;;33.90;20.80;;;;;;;8.83;65.24;100445.64;117059;1213;22869;-67
2021/03/31 08:14:08;;;;;;;33.55;18.75;;;;;;;8.89;65.40;100448.53;117047;1211;23029;-67
2021/03/31 08:16:41;;;;;;;29.15;19.15;;;;;;;8.95;65.18;100442.19;117224;1210;22989;-67
2021/03/31 08:19:16;;;;;;;28.25;19.05;;;;;;;9.00;65.90;100439.63;117133;1214;22957;-68
2021/03/31 08:21:45;;;;;;;31.50;19.10;;;;;;;9.07;65.67;100443.95;117216;1214;22980;-68
2021/03/31 08:24:13;;;;;;;29.55;20.45;;;;;;;9.14;65.42;100438.43;117123;1209;23007;-68
2021/03/31 08:26:41;;;;;;;34.80;20.60;;;;;;;9.21;65.06;100436.48;117221;1215;22987;-67
2021/03/31 08:29:19;;;;;;;29.80;19.70;;;;;;;9.29;64.59;100428.01;117153;1215;23120;-67
2021/03/31 08:31:52;;;;;;;33.40;20.27;;;;;;;9.37;64.67;100427.72;117182;1209;22975;-68
2021/03/31 08:34:20;;;;;;;40.95;22.80;;;;;;;9.44;64.18;100423.02;117085;1213;23098;-68
2021/03/31 08:36:48;;;;;;;36.00;21.05;;;;;;;9.51;64.53;100421.05;117189;1209;23484;-68
2021/03/31 08:39:16;;;;;;;36.65;19.95;;;;;;;9.56;64.35;100415.73;117094;1215;22937;-67
2021/03/31 08:41:46;;;;;;;30.35;19.45;;;;;;;9.62;64.35;100414.00;117174;1214;22837;-67
2021/03/31 08:44:29;;;;;;;31.70;21.43;;;;;;;9.68;63.98;100414.95;117158;1209;22793;-68
2021/03/31 08:47:16;;;;;;;31.90;20.10;;;;;;;9.73;64.10;100410.48;117162;1215;22880;-67
2021/03/31 08:49:49;;;;;;;31.00;19.65;;;;;;;9.81;63.89;100409.35;117100;1209;22917;-68
2021/03/31 08:52:20;;;;;;;32.10;20.80;;;;;;;9.86;63.39;100406.75;117214;1212;22819;-68
2021/03/31 08:54:54;;;;;;;35.10;22.50;;;;;;;9.92;63.43;100411.27;117141;1209;22937;-68
2021/03/31 08:57:26;;;;;;;31.90;20.70;;;;;;;9.95;63.05;100399.09;117245;1209;22923;-68
2021/03/31 08:59:57;;;;;;;34.75;20.50;;;;;;;9.97;62.85;100405.95;117121;1210;22985;-68
2021/03/31 09:02:31;;;;;;;34.90;21.85;;;;;;;10.02;63.27;100397.09;117243;1209;22850;-68
2021/03/31 09:05:03;;;;;;;30.55;21.10;;;;;;;10.05;62.68;100402.91;117090;1215;22962;-68
2021/03/31 09:07:30;;;;;;;30.10;22.00;;;;;;;10.08;62.81;100402.45;117263;1209;22903;-68
2021/03/31 09:09:59;;;;;;;40.17;21.43;;;;;;;10.13;62.52;100401.72;117157;1209;22883;-68
2021/03/31 09:12:29;;;;;;;32.05;22.20;;;;;;;10.16;62.77;100404.82;117216;1209;22966;-67
2021/03/31 09:14:59;;;;;;;36.70;23.50;;;;;;;10.22;62.66;100408.55;117113;1209;23757;-67
2021/03/31 09:17:32;;;;;;;36.95;21.20;;;;;;;10.27;62.49;100400.48;117251;1212;22819;-67
2021/03/31 09:20:02;;;;;;;31.50;21.10;;;;;;;10.33;62.20;100398.72;117157;1209;23467;-66
2021/03/31 09:22:30;;;;;;;38.35;21.75;;;;;;;10.35;62.23;100396.59;117200;1209;23505;-67
2021/03/31 09:25:10;;;;;;;41.30;23.80;;;;;;;10.42;62.48;100392.69;117122;1213;22894;-67
2021/03/31 09:27:58;;;;;;;40.17;24.60;;;;;;;10.49;62.26;100392.58;117244;1209;23045;-66
2021/03/31 09:30:27;;;;;;;50.95;28.50;;;;;;;10.56;62.02;100402.28;117130;1209;22938;-66
2021/03/31 09:33:01;;;;;;;48.10;27.35;;;;;;;10.60;61.76;100398.03;117200;1209;22901;-67
2021/03/31 09:35:31;;;;;;;44.50;27.85;;;;;;;10.66;61.43;100396.27;117109;1212;22974;-66
2021/03/31 09:38:28;;;;;;;57.55;31.45;;;;;;;10.71;61.10;100393.64;117261;1209;22921;-67
2021/03/31 09:41:09;;;;;;;49.20;26.60;;;;;;;10.75;60.99;100388.55;117125;1209;23066;-67
2021/03/31 09:43:56;;;;;;;44.73;25.97;;;;;;;10.79;60.83;100392.47;116987;1209;23027;-67
2021/03/31 09:46:27;;;;;;;48.17;26.97;;;;;;;10.82;60.63;100386.55;116905;1211;24036;-67
2021/03/31 09:49:01;;;;;;;34.80;23.20;;;;;;;10.84;61.21;100389.84;116894;1209;22869;-67
2021/03/31 09:51:37;;;;;;;38.10;24.60;;;;;;;10.88;61.02;100382.84;117143;1209;22880;-67
2021/03/31 09:54:10;;;;;;;37.87;23.40;;;;;;;10.91;60.96;100383.20;117037;1211;22877;-68
2021/03/31 09:56:39;;;;;;;37.75;24.25;;;;;;;10.92;60.87;100384.87;114460;1215;23349;-68
2021/03/31 09:59:13;;;;;;;39.53;26.00;;;;;;;10.91;60.80;100377.75;116953;1214;23624;-68
2021/03/31 10:01:44;;;;;;;46.60;26.80;;;;;;;10.97;60.73;100384.96;117144;1209;22933;-67
2021/03/31 10:04:16;;;;;;;45.70;24.35;;;;;;;11.00;60.87;100378.20;116977;1209;22850;-67
2021/03/31 10:07:16;;;;;;;42.00;24.90;;;;;;;11.01;60.68;100385.31;117736;1205;22901;-66
2021/03/31 10:10:04;;;;;;;30.33;22.03;;;;;;;11.01;61.00;100379.86;117831;1206;22946;-66
2021/03/31 10:12:37;;;;;;;32.00;21.53;;;;;;;11.02;60.91;100375.23;117504;1205;23464;-67
2021/03/31 10:15:10;;;;;;;38.50;22.60;;;;;;;11.04;61.03;100378.56;117539;1208;22953;-67
2021/03/31 10:17:42;;;;;;;40.37;23.73;;;;;;;11.06;61.09;100376.42;117650;1207;22997;-67
2021/03/31 10:20:17;;;;;;;39.67;21.80;;;;;;;11.06;60.93;100377.25;117783;1205;23138;-67
2021/03/31 10:22:56;;;;;;;36.53;24.60;;;;;;;11.07;61.13;100373.46;117741;1205;22927;-66
2021/03/31 10:25:40;;;;;;;44.50;22.83;;;;;;;11.09;61.06;100373.22;117729;1205;22864;-66
2021/03/31 10:28:39;;;;;;;38.13;23.43;;;;;;;11.08;60.99;100368.84;117565;1206;22901;-66
2021/03/31 10:31:27;;;;;;;39.45;23.75;;;;;;;11.09;61.09;100371.33;117819;1208;22977;-67
2021/03/31 10:34:15;;;;;;;39.55;24.45;;;;;;;11.09;61.21;100371.33;117781;1205;22810;-68
2021/03/31 10:40:27;;;;;;;36.60;23.10;;;;;;;11.14;61.75;100370.58;117266;1209;23149;-66
2021/03/31 10:48:57;;;;;;;43.10;25.60;;;;;;;11.20;61.89;100356.83;117333;1209;22918;-66
2021/03/31 10:54:07;;;;;;;42.97;27.07;;;;;;;11.25;61.38;100358.84;117213;1208;23751;-67
2021/03/31 10:56:38;;;;;;;40.60;26.35;;;;;;;11.27;61.60;100353.94;115051;1212;23195;-66
2021/03/31 10:59:06;;;;;;;43.15;25.90;;;;;;;11.29;61.73;100346.34;117315;1212;23049;-66
2021/03/31 11:01:35;;;;;;;39.67;24.00;;;;;;;11.32;61.49;100337.69;117288;1212;22918;-67
2021/03/31 11:04:03;;;;;;;38.07;24.83;;;;;;;11.34;61.53;100336.38;117324;1209;22898;-67
2021/03/31 11:06:32;;;;;;;39.80;25.50;;;;;;;11.38;61.90;100336.73;117408;1208;22946;-68
2021/03/31 11:09:00;;;;;;;55.30;27.17;;;;;;;11.42;61.82;100332.42;117149;1209;23410;-66
2021/03/31 11:11:27;;;;;;;49.77;27.53;;;;;;;11.48;62.16;100325.17;117367;1211;22907;-66
2021/03/31 11:13:55;;;;;;;47.00;29.87;;;;;;;11.54;61.94;100321.47;117327;1209;23603;-66
2021/03/31 11:16:31;;;;;;;50.65;27.10;;;;;;;11.59;61.97;100322.38;117729;1205;22995;-66
2021/03/31 11:27:00;;;;;;;41.83;26.27;;;;;;;11.91;61.20;100319.15;117699;1205;22857;-66
2021/03/31 11:29:56;;;;;;;44.20;26.10;;;;;;;12.00;61.40;100312.19;117694;1206;23056;-66
2021/03/31 11:32:27;;;;;;;36.67;25.70;;;;;;;12.08;61.50;100314.52;117431;1205;23186;-67
2021/03/31 11:34:58;;;;;;;36.68;24.48;;;;;;;12.15;60.88;100311.61;117468;1206;23497;-67
2021/03/31 11:37:28;;;;;;;45.93;27.00;;;;;;;12.19;61.11;100302.67;113780;1206;23134;-62
2021/03/31 11:40:00;;;;;;;43.43;28.08;;;;;;;12.25;60.76;100307.16;117612;1206;22833;-63
2021/03/31 11:42:28;;;;;;;42.63;26.25;;;;;;;12.31;60.35;100311.60;117694;1206;22983;-63
2021/03/31 11:44:57;;;;;;;43.83;27.03;;;;;;;12.35;60.19;100304.56;117686;1206;23236;-63
2021/03/31 11:47:36;;;;;;;43.48;27.93;;;;;;;12.41;60.13;100299.19;117507;1209;23616;-63
2021/03/31 11:50:11;;;;;;;45.57;26.63;;;;;;;12.44;59.41;100298.66;117522;1205;22853;-63
2021/03/31 11:52:48;;;;;;;38.83;26.50;;;;;;;12.47;59.57;100295.44;117519;1205;23751;-63
2021/03/31 11:55:16;;;;;;;39.83;25.83;;;;;;;12.50;59.94;100301.23;117404;1206;22925;-63
2021/03/31 11:57:45;;;;;;;55.53;28.55;;;;;;;12.55;59.55;100293.08;117653;1209;22960;-63
2021/03/31 12:00:17;;;;;;;43.63;28.00;;;;;;;12.60;59.71;100292.34;117233;1205;22896;-63